createdAt,value
2022-08-09T00:00:00.408Z,94429.66
2022-08-09T00:02:31.504Z,94459.13
2022-08-09T00:05:03.064Z,94467.63
2022-08-09T00:07:45.297Z,94442.41
2022-08-09T00:10:17.771Z,94470.88
2022-08-09T00:12:45.818Z,94418.78
2022-08-09T00:15:14.650Z,94448.25
2022-08-09T00:18:05.105Z,94463.41
2022-08-09T00:20:27.683Z,94451.91
2022-08-09T00:22:58.110Z,94432.53
2022-08-09T00:25:44.504Z,94455.75
2022-08-09T00:28:18.455Z,94470.91
2022-08-09T00:30:45.437Z,94474.53
2022-08-09T00:33:12.338Z,94438.97
2022-08-09T00:35:43.370Z,94460.81
2022-08-09T00:38:12.545Z,94465.22
2022-08-09T00:40:40.100Z,94457.97
2022-08-09T00:44:14.162Z,94455.72
2022-08-09T00:46:09.338Z,94441.81
2022-08-09T00:48:37.126Z,94460.78
2022-08-09T00:51:11.836Z,94451.91
2022-08-09T00:53:39.902Z,94445.03
2022-08-09T00:56:09.848Z,94430.88
2022-08-09T00:58:37.038Z,94440.75
2022-08-09T01:01:15.827Z,94456.91
2022-08-09T01:03:56.592Z,94457.53
2022-08-09T01:06:54.831Z,94448.63
2022-08-09T01:09:39.820Z,94454.72
2022-08-09T01:12:17.980Z,94422.31
2022-08-09T01:14:48.330Z,94454.28
2022-08-09T01:17:25.109Z,94436.88
2022-08-09T01:20:08.184Z,94455.91
2022-08-09T01:22:54.797Z,94463.16
2022-08-09T01:25:30.212Z,94414.19
2022-08-09T01:27:59.630Z,94442.47
2022-08-09T01:30:35.453Z,94467.50
2022-08-09T01:33:16.895Z,94466.06
2022-08-09T01:36:07.502Z,94467.16
2022-08-09T01:38:44.254Z,94440.41
2022-08-09T01:41:35.626Z,94461.91
2022-08-09T01:44:04.854Z,94463.19
2022-08-09T01:46:33.281Z,94465.06
2022-08-09T01:49:10.744Z,94445.47
2022-08-09T01:51:44.430Z,94432.75
2022-08-09T01:54:21.381Z,94445.22
2022-08-09T01:56:51.756Z,94461.75
2022-08-09T01:59:21.072Z,94464.16
2022-08-09T02:01:59.621Z,94467.19
2022-08-09T02:04:29.596Z,94465.78
2022-08-09T02:08:34.644Z,94439.06
2022-08-09T02:10:09.534Z,94462.97
2022-08-09T02:12:37.755Z,94462.09
2022-08-09T02:15:08.521Z,94438.22
2022-08-09T02:18:00.856Z,94443.47
2022-08-09T02:20:34.174Z,94441.78
2022-08-09T02:23:14.046Z,94456.50
2022-08-09T02:25:52.836Z,94460.28
2022-08-09T02:28:32.018Z,94454.22
2022-08-09T02:31:06.162Z,94451.31
2022-08-09T02:34:06.692Z,94434.78
2022-08-09T02:36:33.800Z,94449.09
2022-08-09T02:39:06.932Z,94435.16
2022-08-09T02:41:55.653Z,94421.38
2022-08-09T02:44:29.617Z,94448.03
2022-08-09T02:47:00.220Z,94441.53
2022-08-09T02:49:38.865Z,94428.13
2022-08-09T02:52:11.857Z,94445.31
2022-08-09T02:54:54.496Z,94452.66
2022-08-09T02:57:23.396Z,94407.53
2022-08-09T03:00:20.605Z,94422.19
2022-08-09T03:02:58.081Z,94425.63
2022-08-09T03:05:26.451Z,94438.09
2022-08-09T03:07:55.190Z,94393.38
2022-08-09T03:10:24.046Z,94443.63
2022-08-09T03:12:51.896Z,94447.72
2022-08-09T03:15:20.755Z,94455.34
2022-08-09T03:17:53.999Z,94432.41
2022-08-09T03:20:29.699Z,94445.53
2022-08-09T03:22:58.450Z,94442.31
2022-08-09T03:26:03.039Z,94423.25
2022-08-09T03:28:30.921Z,94466.84
2022-08-09T03:30:59.209Z,94471.72
2022-08-09T03:33:53.599Z,94466.75
2022-08-09T03:36:22.089Z,94466.75
2022-08-09T03:38:54.747Z,94439.34
2022-08-09T03:41:29.682Z,94454.94
2022-08-09T03:44:07.881Z,94463.03
2022-08-09T03:46:36.142Z,94474.94
2022-08-09T03:49:08.023Z,94473.47
2022-08-09T03:51:55.737Z,94472.47
2022-08-09T03:54:29.364Z,94450.19
2022-08-09T03:56:59.423Z,94480.47
2022-08-09T03:59:27.416Z,94479.19
2022-08-09T04:02:10.174Z,94463.88
2022-08-09T04:04:38.937Z,94461.75
2022-08-09T04:07:05.783Z,94458.66
2022-08-09T04:09:41.694Z,94452.19
2022-08-09T04:12:40.746Z,94486.88
2022-08-09T04:15:11.372Z,94485.69
2022-08-09T04:17:47.430Z,94462.88
2022-08-09T04:20:14.825Z,94488.44
2022-08-09T04:22:44.107Z,94490.16
2022-08-09T04:25:12.980Z,94473.00
2022-08-09T04:27:48.916Z,94486.06
2022-08-09T04:30:20.808Z,94488.81
2022-08-09T04:32:52.495Z,94486.06
2022-08-09T04:35:21.829Z,94490.91
2022-08-09T04:37:49.590Z,94471.34
2022-08-09T04:40:19.033Z,94465.50
2022-08-09T04:42:48.485Z,94497.16
2022-08-09T04:45:16.575Z,94497.53
2022-08-09T04:48:00.146Z,94492.41
2022-08-09T04:50:33.594Z,94492.00
2022-08-09T04:53:02.178Z,94486.75
2022-08-09T04:55:38.993Z,94466.25
2022-08-09T04:58:09.584Z,94447.31
2022-08-09T05:00:36.645Z,94474.38
2022-08-09T05:03:30.691Z,94501.13
2022-08-09T05:06:06.635Z,94515.31
2022-08-09T05:08:35.138Z,94512.75
2022-08-09T05:11:02.438Z,94500.06
2022-08-09T05:13:29.191Z,94491.41
2022-08-09T05:15:59.866Z,94505.78
2022-08-09T05:18:38.947Z,94513.13
2022-08-09T05:21:22.921Z,94511.16
2022-08-09T05:24:00.555Z,94514.81
2022-08-09T05:26:45.292Z,94478.06
2022-08-09T05:29:17.454Z,94499.13
2022-08-09T05:31:46.594Z,94505.19
2022-08-09T05:34:18.616Z,94504.41
2022-08-09T05:36:47.128Z,94501.59
2022-08-09T05:39:28.591Z,94495.75
2022-08-09T05:41:56.745Z,94516.34
2022-08-09T05:44:29.169Z,94507.97
2022-08-09T05:46:59.727Z,94495.75
2022-08-09T05:50:23.547Z,94469.91
2022-08-09T05:52:12.789Z,94498.28
2022-08-09T05:54:39.893Z,94498.19
2022-08-09T05:57:07.623Z,94472.06
2022-08-09T05:59:39.625Z,94475.63
2022-08-09T06:02:09.982Z,94510.03
2022-08-09T06:04:36.792Z,94517.72
2022-08-09T06:07:10.892Z,94508.16
2022-08-09T06:09:55.201Z,94494.50
2022-08-09T06:12:31.480Z,94498.97
2022-08-09T06:15:01.378Z,94515.47
2022-08-09T06:17:39.259Z,94508.16
2022-08-09T06:20:08.069Z,94473.97
2022-08-09T06:22:35.559Z,94518.34
2022-08-09T06:25:02.295Z,94524.97
2022-08-09T06:27:43.188Z,94498.16
2022-08-09T06:30:17.028Z,94507.50
2022-08-09T06:32:59.109Z,94499.94
2022-08-09T06:35:56.251Z,94534.94
2022-08-09T06:38:15.870Z,94524.31
2022-08-09T06:40:43.289Z,94510.94
2022-08-09T06:43:10.687Z,94498.50
2022-08-09T06:46:04.871Z,94516.06
2022-08-09T06:48:26.135Z,94521.03
2022-08-09T06:50:58.022Z,94513.03
2022-08-09T06:53:25.028Z,94528.56
2022-08-09T06:55:52.102Z,94515.84
2022-08-09T06:58:40.590Z,94509.28
2022-08-09T07:01:05.456Z,94542.25
2022-08-09T07:03:39.521Z,94532.38
2022-08-09T07:06:18.928Z,94532.72
2022-08-09T07:08:46.741Z,94538.84
2022-08-09T07:11:23.598Z,94511.81
2022-08-09T07:14:05.432Z,94522.50
2022-08-09T07:16:41.037Z,94543.19
2022-08-09T07:19:15.799Z,94500.19
2022-08-09T07:21:50.113Z,94538.69
2022-08-09T07:24:22.701Z,94516.47
2022-08-09T07:27:00.451Z,94539.63
2022-08-09T07:29:30.863Z,94507.25
2022-08-09T07:32:05.853Z,94531.75
2022-08-09T07:34:32.275Z,94534.50
2022-08-09T07:37:02.535Z,94540.19
2022-08-09T07:39:41.390Z,94536.38
2022-08-09T07:42:09.360Z,94538.91
2022-08-09T07:44:50.893Z,94537.91
2022-08-09T07:47:20.908Z,94538.66
2022-08-09T07:50:04.603Z,94524.38
2022-08-09T07:52:35.811Z,94523.06
2022-08-09T07:55:08.818Z,94551.19
2022-08-09T07:57:36.451Z,94527.16
2022-08-09T08:00:08.988Z,94528.22
2022-08-09T08:02:36.601Z,94518.94
2022-08-09T08:05:18.831Z,94542.72
2022-08-09T08:08:44.351Z,94544.84
2022-08-09T08:10:34.467Z,94530.66
2022-08-09T08:13:01.387Z,94526.56
2022-08-09T08:15:35.353Z,94521.31
2022-08-09T08:18:04.024Z,94525.59
2022-08-09T08:20:32.702Z,94544.47
2022-08-09T08:23:06.511Z,94543.00
2022-08-09T08:25:46.099Z,94521.88
2022-08-09T08:28:15.597Z,94545.00
2022-08-09T08:30:45.286Z,94532.94
2022-08-09T08:33:23.635Z,94522.84
2022-08-09T08:35:58.277Z,94541.50
2022-08-09T08:38:27.925Z,94524.38
2022-08-09T08:40:56.176Z,94537.78
2022-08-09T08:43:23.752Z,94537.78
2022-08-09T08:46:03.846Z,94545.66
2022-08-09T08:48:51.735Z,94537.47
2022-08-09T08:51:20.293Z,94520.91
2022-08-09T08:54:03.236Z,94547.75
2022-08-09T08:56:33.665Z,94529.16
2022-08-09T08:59:07.661Z,94518.53
2022-08-09T09:01:52.763Z,94543.25
2022-08-09T09:04:27.319Z,94549.94
2022-08-09T09:06:58.088Z,94549.03
2022-08-09T09:09:58.131Z,94521.41
2022-08-09T09:12:16.697Z,94532.81
2022-08-09T09:14:44.894Z,94540.75
2022-08-09T09:17:16.419Z,94529.19
2022-08-09T09:19:44.352Z,94542.00
2022-08-09T09:22:15.908Z,94506.84
2022-08-09T09:24:59.056Z,94536.28
2022-08-09T09:28:05.013Z,94506.94
2022-08-09T09:33:15.524Z,94532.06
2022-08-09T09:36:04.042Z,94536.84
2022-08-09T09:38:52.355Z,94513.53
2022-08-09T09:41:32.986Z,94540.06
2022-08-09T09:44:11.519Z,94515.59
2022-08-09T09:46:50.630Z,94534.06
2022-08-09T09:49:32.232Z,94545.06
2022-08-09T09:52:36.903Z,94520.81
2022-08-09T09:55:27.713Z,94514.72
2022-08-09T09:58:03.949Z,94550.28
2022-08-09T10:00:31.746Z,94533.97
2022-08-09T10:03:00.032Z,94526.47
2022-08-09T10:05:27.077Z,94528.09
2022-08-09T10:08:27.715Z,94531.59
2022-08-09T10:10:55.066Z,94517.72
2022-08-09T10:13:23.783Z,94530.22
2022-08-09T10:16:56.622Z,94541.47
2022-08-09T10:18:59.875Z,94523.56
2022-08-09T10:21:27.770Z,94541.69
2022-08-09T10:23:57.101Z,94505.09
2022-08-09T10:26:26.746Z,94515.69
2022-08-09T10:29:23.289Z,94530.53
2022-08-09T10:32:27.934Z,94532.94
2022-08-09T10:34:34.004Z,94504.47
2022-08-09T10:37:02.711Z,94521.13
2022-08-09T10:39:29.930Z,94535.50
2022-08-09T10:42:06.949Z,94529.56
2022-08-09T10:44:39.771Z,94533.38
2022-08-09T10:48:19.546Z,94510.94
2022-08-09T10:51:05.321Z,94534.94
2022-08-09T10:53:58.217Z,94519.31
2022-08-09T10:56:30.018Z,94526.25
2022-08-09T10:58:59.250Z,94524.03
2022-08-09T11:03:46.751Z,94522.50
2022-08-09T11:04:31.636Z,94526.88
2022-08-09T11:07:00.059Z,94537.06
2022-08-09T11:09:41.237Z,94523.09
2022-08-09T11:12:17.365Z,94505.94
2022-08-09T11:14:47.284Z,94528.91
2022-08-09T11:17:13.818Z,94527.28
2022-08-09T11:20:09.921Z,94528.41
2022-08-09T11:22:44.823Z,94530.06
2022-08-09T11:25:15.393Z,94537.03
2022-08-09T11:28:04.430Z,94525.47
2022-08-09T11:30:37.980Z,94540.16
2022-08-09T11:33:24.412Z,94530.44
2022-08-09T11:35:58.808Z,94533.25
2022-08-09T11:38:35.464Z,94538.88
2022-08-09T11:41:14.181Z,94536.63
2022-08-09T11:43:48.647Z,94512.81
2022-08-09T11:46:26.770Z,94533.00
2022-08-09T11:49:00.913Z,94538.06
2022-08-09T11:53:03.047Z,94535.84
2022-08-09T11:55:39.838Z,94526.66
2022-08-09T11:58:16.347Z,94533.00
2022-08-09T12:00:55.168Z,94506.31
2022-08-09T12:03:55.373Z,94525.09
2022-08-09T12:06:26.757Z,94527.88
2022-08-09T12:08:59.874Z,94527.56
2022-08-09T12:11:28.525Z,94516.00
2022-08-09T12:14:10.330Z,94508.75
2022-08-09T12:16:53.441Z,94488.97
2022-08-09T12:19:29.508Z,94506.59
2022-08-09T12:22:01.222Z,94508.06
2022-08-09T12:24:30.294Z,94519.13
2022-08-09T12:28:58.954Z,94500.34
2022-08-09T12:29:59.965Z,94522.31
2022-08-09T12:32:31.354Z,94484.19
2022-08-09T12:35:02.989Z,94501.31
2022-08-09T12:37:37.859Z,94495.31
2022-08-09T12:40:23.272Z,94496.28
2022-08-09T12:42:51.860Z,94519.63
2022-08-09T12:45:33.295Z,94493.25
2022-08-09T12:48:03.199Z,94484.22
2022-08-09T12:50:31.784Z,94477.75
2022-08-09T12:53:09.161Z,94482.75
2022-08-09T12:56:11.525Z,94516.38
2022-08-09T12:58:31.710Z,94512.25
2022-08-09T13:00:58.462Z,94510.66
2022-08-09T13:03:53.385Z,94501.16
2022-08-09T13:06:42.964Z,94508.00
2022-08-09T13:09:15.436Z,94506.22
2022-08-09T13:11:47.098Z,94485.41
2022-08-09T13:14:41.399Z,94493.47
2022-08-09T13:17:05.586Z,94497.25
2022-08-09T13:20:08.356Z,94473.66
2022-08-09T13:22:35.319Z,94477.69
2022-08-09T13:25:07.312Z,94490.94
2022-08-09T13:27:39.665Z,94496.81
2022-08-09T13:30:50.593Z,94505.88
2022-08-09T13:33:06.941Z,94483.59
2022-08-09T13:36:24.724Z,94498.19
2022-08-09T13:38:54.275Z,94498.41
2022-08-09T13:41:51.430Z,94478.47
2022-08-09T13:43:57.552Z,94499.22
2022-08-09T13:47:13.038Z,94471.84
2022-08-09T13:49:17.990Z,94481.44
2022-08-09T13:52:00.519Z,94483.13
2022-08-09T13:54:27.762Z,94473.69
2022-08-09T13:56:57.384Z,94478.78
2022-08-09T13:59:25.590Z,94462.91
2022-08-09T14:02:02.058Z,94489.47
2022-08-09T14:04:29.467Z,94493.88
2022-08-09T14:07:03.529Z,94482.84
2022-08-09T14:09:31.637Z,94493.38
2022-08-09T14:12:02.136Z,94496.19
2022-08-09T14:14:35.013Z,94478.75
2022-08-09T14:17:01.663Z,94474.44
2022-08-09T14:19:33.266Z,94487.97
2022-08-09T14:22:00.375Z,94467.78
2022-08-09T14:24:32.609Z,94477.41
2022-08-09T14:27:01.270Z,94477.34
2022-08-09T14:30:35.695Z,94466.47
2022-08-09T14:32:16.532Z,94456.59
2022-08-09T14:34:47.606Z,94456.78
2022-08-09T14:37:22.470Z,94478.81
2022-08-09T14:39:55.260Z,94456.16
2022-08-09T14:42:40.463Z,94485.19
2022-08-09T14:46:55.000Z,94485.94
2022-08-09T14:47:59.269Z,94474.34
2022-08-09T14:50:29.095Z,94471.44
2022-08-09T14:52:56.100Z,94474.50
2022-08-09T14:55:22.574Z,94463.84
2022-08-09T14:57:49.700Z,94468.47
2022-08-09T15:00:17.173Z,94472.59
2022-08-09T15:02:47.226Z,94451.72
2022-08-09T15:05:15.238Z,94441.28
2022-08-09T15:07:45.571Z,94475.75
2022-08-09T15:10:21.769Z,94466.81
2022-08-09T15:12:52.274Z,94444.75
2022-08-09T15:15:18.785Z,94460.44
2022-08-09T15:17:51.737Z,94470.97
2022-08-09T15:21:57.000Z,94467.22
2022-08-09T15:24:01.450Z,94481.41
2022-08-09T15:25:53.752Z,94443.94
2022-08-09T15:28:26.429Z,94470.47
2022-08-09T15:31:03.273Z,94460.03
2022-08-09T15:34:17.310Z,94466.06
2022-08-09T15:36:29.122Z,94467.97
2022-08-09T15:38:57.556Z,94457.16
2022-08-09T15:41:31.908Z,94439.25
2022-08-09T15:44:03.023Z,94428.88
2022-08-09T15:46:33.767Z,94438.81
2022-08-09T15:49:20.623Z,94462.00
2022-08-09T15:52:03.160Z,94465.00
2022-08-09T15:54:44.579Z,94447.38
2022-08-09T15:57:34.118Z,94470.28
2022-08-09T16:00:01.809Z,94450.63
2022-08-09T16:02:28.233Z,94443.06
2022-08-09T16:04:55.566Z,94440.25
2022-08-09T16:07:22.329Z,94430.88
2022-08-09T16:10:04.355Z,94453.88
2022-08-09T16:12:32.665Z,94465.84
2022-08-09T16:15:00.827Z,94460.97
2022-08-09T16:17:28.881Z,94440.41
2022-08-09T16:20:03.920Z,94444.44
2022-08-09T16:22:32.015Z,94452.66
2022-08-09T16:25:01.559Z,94432.47
2022-08-09T16:27:29.948Z,94443.34
2022-08-09T16:30:00.711Z,94412.63
2022-08-09T16:32:49.610Z,94416.38
2022-08-09T16:35:55.988Z,94416.88
2022-08-09T16:38:07.387Z,94420.38
2022-08-09T16:40:41.080Z,94432.47
2022-08-09T16:43:08.689Z,94426.53
2022-08-09T16:45:35.411Z,94421.31
2022-08-09T16:48:42.027Z,94430.66
2022-08-09T16:50:59.392Z,94437.97
2022-08-09T16:53:32.397Z,94431.56
2022-08-09T16:56:04.826Z,94428.81
2022-08-09T16:58:36.786Z,94455.19
2022-08-09T17:01:04.404Z,94427.22
2022-08-09T17:03:31.155Z,94450.28
2022-08-09T17:06:07.818Z,94443.88
2022-08-09T17:08:45.727Z,94454.38
2022-08-09T17:11:24.471Z,94458.88
2022-08-09T17:14:01.394Z,94440.31
2022-08-09T17:16:28.671Z,94455.28
2022-08-09T17:18:55.246Z,94448.00
2022-08-09T17:21:21.785Z,94442.78
2022-08-09T17:24:27.806Z,94453.44
2022-08-09T17:26:38.333Z,94462.03
2022-08-09T17:29:05.207Z,94460.44
2022-08-09T17:31:38.807Z,94453.44
2022-08-09T17:34:06.732Z,94466.38
2022-08-09T17:36:53.814Z,94454.22
2022-08-09T17:39:24.856Z,94463.84
2022-08-09T17:41:51.767Z,94476.09
2022-08-09T17:44:42.569Z,94455.91
2022-08-09T17:47:05.934Z,94482.13
2022-08-09T17:49:36.970Z,94459.16
2022-08-09T17:52:20.629Z,94480.00
2022-08-09T17:54:49.663Z,94455.78
2022-08-09T17:57:20.765Z,94475.78
2022-08-09T18:00:05.440Z,94491.81
2022-08-09T18:02:34.869Z,94471.03
2022-08-09T18:05:01.484Z,94478.50
2022-08-09T18:07:30.275Z,94495.00
2022-08-09T18:10:05.101Z,94484.31
2022-08-09T18:12:40.622Z,94501.41
2022-08-09T18:15:18.759Z,94506.69
2022-08-09T18:18:03.795Z,94470.41
2022-08-09T18:20:55.890Z,94482.13
2022-08-09T18:24:11.014Z,94504.47
2022-08-09T18:26:04.000Z,94487.31
2022-08-09T18:30:42.345Z,94486.53
2022-08-09T18:31:25.115Z,94515.63
2022-08-09T18:34:03.792Z,94508.63
2022-08-09T18:36:34.559Z,94504.81
2022-08-09T18:39:05.227Z,94525.00
2022-08-09T18:41:35.036Z,94503.97
2022-08-09T18:44:03.173Z,94515.13
2022-08-09T18:46:47.136Z,94495.66
2022-08-09T18:49:16.952Z,94515.75
2022-08-09T18:51:54.593Z,94511.72
2022-08-09T18:54:28.486Z,94506.28
2022-08-09T18:57:05.954Z,94523.00
2022-08-09T18:59:49.062Z,94532.19
2022-08-09T19:02:23.957Z,94511.25
2022-08-09T19:05:03.755Z,94542.88
2022-08-09T19:07:40.745Z,94533.06
2022-08-09T19:10:14.172Z,94557.84
2022-08-09T19:12:52.954Z,94559.13
2022-08-09T19:15:26.869Z,94557.41
2022-08-09T19:17:54.824Z,94557.41
2022-08-09T19:20:25.569Z,94545.00
2022-08-09T19:22:54.504Z,94568.47
2022-08-09T19:25:42.545Z,94550.28
2022-08-09T19:28:13.434Z,94570.44
2022-08-09T19:30:44.646Z,94529.44
2022-08-09T19:33:19.327Z,94528.44
2022-08-09T19:35:57.921Z,94537.56
2022-08-09T19:38:25.735Z,94567.28
2022-08-09T19:40:53.873Z,94544.66
2022-08-09T19:43:58.155Z,94553.31
2022-08-09T19:46:08.537Z,94534.69
2022-08-09T19:49:02.003Z,94551.50
2022-08-09T19:51:30.927Z,94557.22
2022-08-09T19:53:58.941Z,94567.94
2022-08-09T19:56:28.837Z,94556.56
2022-08-09T19:59:18.270Z,94582.78
2022-08-09T20:01:53.228Z,94565.75
2022-08-09T20:04:37.584Z,94552.88
2022-08-09T20:07:12.405Z,94573.06
2022-08-09T20:09:47.612Z,94577.94
2022-08-09T20:12:30.254Z,94551.47
2022-08-09T20:15:04.493Z,94545.22
2022-08-09T20:17:48.165Z,94570.97
2022-08-09T20:20:15.266Z,94561.91
2022-08-09T20:22:46.265Z,94533.59
2022-08-09T20:25:13.081Z,94570.41
2022-08-09T20:27:49.059Z,94563.66
2022-08-09T20:30:17.978Z,94549.25
2022-08-09T20:32:52.039Z,94582.28
2022-08-09T20:35:20.111Z,94534.66
2022-08-09T20:38:22.104Z,94580.97
2022-08-09T20:40:35.386Z,94565.09
2022-08-09T20:43:17.856Z,94571.63
2022-08-09T20:46:00.900Z,94559.19
2022-08-09T20:48:39.271Z,94587.50
2022-08-09T20:51:06.757Z,94582.28
2022-08-09T20:53:37.619Z,94579.88
2022-08-09T20:56:08.757Z,94584.97
2022-08-09T20:58:36.128Z,94558.38
2022-08-09T21:01:33.291Z,94569.13
2022-08-09T21:04:07.897Z,94588.13
2022-08-09T21:06:42.542Z,94590.56
2022-08-09T21:09:11.787Z,94558.16
2022-08-09T21:14:27.462Z,94573.72
2022-08-09T21:16:58.057Z,94561.78
2022-08-09T21:20:16.947Z,94561.25
2022-08-09T21:22:35.674Z,94576.06
2022-08-09T21:25:17.519Z,94565.34
2022-08-09T21:27:51.614Z,94576.88
2022-08-09T21:30:22.247Z,94556.03
2022-08-09T21:32:49.333Z,94577.56
2022-08-09T21:35:17.112Z,94560.22
2022-08-09T21:37:59.594Z,94576.06
2022-08-09T21:40:30.671Z,94582.84
2022-08-09T21:43:00.256Z,94584.22
2022-08-09T21:45:27.967Z,94581.09
2022-08-09T21:47:54.464Z,94571.03
2022-08-09T21:50:35.974Z,94583.97
2022-08-09T21:53:15.621Z,94563.66
2022-08-09T21:55:50.407Z,94566.34
2022-08-09T21:58:16.871Z,94546.94
2022-08-09T22:00:43.604Z,94547.31
2022-08-09T22:03:19.556Z,94558.34
2022-08-09T22:05:51.867Z,94578.91
2022-08-09T22:08:18.437Z,94575.72
2022-08-09T22:11:00.749Z,94553.34
2022-08-09T22:13:35.709Z,94554.66
2022-08-09T22:16:08.554Z,94584.69
2022-08-09T22:18:52.258Z,94554.84
2022-08-09T22:21:21.935Z,94560.94
2022-08-09T22:24:01.708Z,94560.94
2022-08-09T22:26:35.004Z,94550.47
2022-08-09T22:29:07.489Z,94559.31
2022-08-09T22:31:36.061Z,94539.53
2022-08-09T22:34:03.389Z,94536.94
2022-08-09T22:36:45.814Z,94549.66
2022-08-09T22:39:20.532Z,94575.53
2022-08-09T22:41:59.382Z,94534.31
2022-08-09T22:44:32.981Z,94572.72
2022-08-09T22:48:18.634Z,94571.09
2022-08-09T22:49:48.101Z,94561.59
2022-08-09T22:52:19.008Z,94550.91
2022-08-09T22:54:47.896Z,94556.16
2022-08-09T22:57:15.087Z,94568.50
2022-08-09T22:59:56.988Z,94563.03
2022-08-09T23:02:26.042Z,94525.84
2022-08-09T23:04:55.272Z,94531.91
2022-08-09T23:08:27.423Z,94559.41
2022-08-09T23:10:30.867Z,94562.66
2022-08-09T23:12:58.273Z,94525.41
2022-08-09T23:15:25.397Z,94543.22
2022-08-09T23:17:52.005Z,94506.44
2022-08-09T23:20:18.437Z,94523.81
2022-08-09T23:22:44.905Z,94547.28
2022-08-09T23:25:11.391Z,94504.41
2022-08-09T23:27:57.193Z,94501.59
2022-08-09T23:30:24.330Z,94519.19
2022-08-09T23:32:50.755Z,94534.34
2022-08-09T23:35:17.214Z,94527.44
2022-08-09T23:37:43.621Z,94517.72
2022-08-09T23:40:10.717Z,94515.09
2022-08-09T23:42:37.175Z,94545.25
2022-08-09T23:45:04.527Z,94522.22
2022-08-09T23:47:35.217Z,94519.75
2022-08-09T23:50:01.758Z,94517.72
2022-08-09T23:52:28.214Z,94504.41
2022-08-09T23:54:55.607Z,94526.22
2022-08-09T23:57:22.086Z,94521.66
